createdAt,value
2024-05-09T00:01:00.980Z,0.30
2024-05-09T00:03:33.484Z,0.40
2024-05-09T00:06:06.264Z,0.43
2024-05-09T00:08:38.717Z,0.50
2024-05-09T00:11:14.032Z,0.40
2024-05-09T00:13:46.365Z,0.40
2024-05-09T00:16:18.511Z,0.30
2024-05-09T00:18:50.704Z,0.30
2024-05-09T00:21:22.963Z,0.40
2024-05-09T00:23:55.057Z,0.40
2024-05-09T00:26:29.993Z,0.30
2024-05-09T00:29:02.215Z,0.40
2024-05-09T00:31:34.275Z,0.40
2024-05-09T00:34:06.817Z,0.40
2024-05-09T00:36:39.627Z,0.40
2024-05-09T00:39:12.529Z,0.30
2024-05-09T00:41:47.502Z,0.40
2024-05-09T00:44:22.359Z,0.30
2024-05-09T00:46:56.903Z,0.37
2024-05-09T00:49:30.789Z,0.40
2024-05-09T00:52:03.625Z,0.40
2024-05-09T00:54:35.941Z,0.40
2024-05-09T00:57:11.086Z,0.40
2024-05-09T00:59:44.005Z,0.30
2024-05-09T01:02:16.488Z,0.40
2024-05-09T01:04:49.212Z,0.30
2024-05-09T01:07:21.578Z,0.40
2024-05-09T01:09:53.902Z,0.40
2024-05-09T01:12:28.980Z,0.30
2024-05-09T01:15:01.320Z,0.37
2024-05-09T01:17:33.616Z,0.33
2024-05-09T01:20:06.427Z,0.50
2024-05-09T01:22:44.040Z,0.30
2024-05-09T01:25:19.425Z,0.30
2024-05-09T01:27:51.389Z,0.40
2024-05-09T01:30:31.300Z,0.40
2024-05-09T01:33:08.216Z,0.50
2024-05-09T01:35:43.063Z,0.40
2024-05-09T01:38:17.911Z,0.37
2024-05-09T01:40:58.132Z,0.30
2024-05-09T01:43:30.259Z,0.40
2024-05-09T01:46:02.495Z,0.40
2024-05-09T01:48:35.051Z,0.40
2024-05-09T01:51:07.494Z,0.40
2024-05-09T01:53:39.982Z,0.40
2024-05-09T01:56:15.403Z,0.40
2024-05-09T01:58:47.515Z,0.37
2024-05-09T02:01:20.048Z,0.40
2024-05-09T02:03:52.475Z,0.40
2024-05-09T02:06:24.801Z,0.40
2024-05-09T02:08:57.745Z,0.40
2024-05-09T02:11:33.164Z,0.40
2024-05-09T02:14:07.594Z,0.40
2024-05-09T02:16:39.643Z,0.40
2024-05-09T02:19:11.825Z,0.40
2024-05-09T02:21:43.989Z,0.40
2024-05-09T02:24:15.982Z,0.30
2024-05-09T02:26:50.833Z,0.40
2024-05-09T02:29:22.977Z,0.40
2024-05-09T02:31:55.047Z,0.40
2024-05-09T02:34:27.278Z,0.40
2024-05-09T02:36:56.910Z,0.40
2024-05-09T02:39:28.865Z,0.40
2024-05-09T02:42:00.749Z,0.40
2024-05-09T02:44:32.961Z,0.40
2024-05-09T02:47:02.190Z,0.30
2024-05-09T02:49:34.955Z,0.40
2024-05-09T02:52:04.115Z,0.40
2024-05-09T02:54:36.140Z,0.40
2024-05-09T02:57:08.877Z,0.40
2024-05-09T02:59:40.893Z,0.40
2024-05-09T03:02:10.082Z,0.40
2024-05-09T03:04:43.030Z,0.40
2024-05-09T03:07:12.173Z,0.40
2024-05-09T03:09:44.834Z,0.40
2024-05-09T03:12:17.424Z,0.30
2024-05-09T03:14:49.467Z,0.43
2024-05-09T03:17:18.712Z,0.40
2024-05-09T03:19:50.717Z,0.40
2024-05-09T03:22:20.088Z,0.40
2024-05-09T03:24:52.310Z,0.50
2024-05-09T03:27:25.532Z,0.40
2024-05-09T03:29:57.671Z,0.50
2024-05-09T03:32:26.970Z,0.33
2024-05-09T03:34:59.071Z,0.40
2024-05-09T03:37:31.032Z,0.30
2024-05-09T03:40:03.140Z,0.40
2024-05-09T03:42:41.516Z,0.40
2024-05-09T03:45:13.718Z,0.37
2024-05-09T03:47:43.162Z,0.37
2024-05-09T03:50:18.482Z,0.50
2024-05-09T03:52:55.031Z,0.30
2024-05-09T03:55:27.115Z,0.33
2024-05-09T03:57:59.268Z,0.43
2024-05-09T04:00:37.872Z,0.30
2024-05-09T04:03:11.344Z,0.40
2024-05-09T04:05:45.170Z,0.40
2024-05-09T04:08:15.552Z,0.40
2024-05-09T04:10:48.498Z,0.40
2024-05-09T04:13:20.949Z,0.40
2024-05-09T04:15:52.971Z,0.40
2024-05-09T04:18:22.132Z,0.40
2024-05-09T04:20:54.289Z,0.40
2024-05-09T04:23:23.426Z,0.37
2024-05-09T04:25:55.476Z,0.30
2024-05-09T04:28:28.436Z,0.30
2024-05-09T04:31:00.386Z,0.40
2024-05-09T04:33:30.841Z,0.40
2024-05-09T04:36:02.956Z,0.40
2024-05-09T04:38:32.222Z,0.40
2024-05-09T04:41:05.002Z,0.40
2024-05-09T04:43:37.078Z,0.30
2024-05-09T04:46:09.221Z,0.40
2024-05-09T04:48:38.598Z,0.40
2024-05-09T04:51:11.838Z,0.47
2024-05-09T04:53:41.513Z,0.40
2024-05-09T04:56:13.625Z,0.40
2024-05-09T04:58:45.686Z,0.47
2024-05-09T05:01:18.884Z,0.40
2024-05-09T05:03:48.213Z,0.40
2024-05-09T05:06:20.278Z,0.40
2024-05-09T05:08:49.708Z,0.40
2024-05-09T05:11:22.191Z,0.40
2024-05-09T05:13:54.761Z,0.50
2024-05-09T05:16:26.729Z,0.40
2024-05-09T05:18:55.935Z,0.40
2024-05-09T05:21:27.929Z,0.40
2024-05-09T05:23:57.146Z,0.40
2024-05-09T05:26:29.158Z,0.40
2024-05-09T05:29:01.338Z,0.40
2024-05-09T05:31:33.371Z,0.40
2024-05-09T05:34:02.619Z,0.40
2024-05-09T05:36:34.570Z,0.40
2024-05-09T05:39:03.698Z,0.40
2024-05-09T05:41:35.643Z,0.40
2024-05-09T05:44:08.149Z,0.40
2024-05-09T05:46:40.298Z,0.40
2024-05-09T05:49:09.594Z,0.40
2024-05-09T05:51:41.803Z,0.40
2024-05-09T05:54:10.945Z,0.50
2024-05-09T05:56:43.048Z,0.40
2024-05-09T05:59:15.693Z,0.30
2024-05-09T06:01:48.326Z,0.40
2024-05-09T06:04:17.853Z,0.40
2024-05-09T06:06:49.810Z,0.40
2024-05-09T06:09:19.139Z,0.40
2024-05-09T06:11:51.820Z,0.40
2024-05-09T06:14:24.136Z,0.50
2024-05-09T06:16:58.194Z,0.40
2024-05-09T06:19:27.600Z,0.40
2024-05-09T06:21:59.837Z,0.40
2024-05-09T06:24:29.110Z,0.40
2024-05-09T06:27:01.910Z,0.40
2024-05-09T06:29:34.054Z,0.40
2024-05-09T06:32:06.174Z,0.40
2024-05-09T06:34:35.596Z,0.40
2024-05-09T06:37:07.737Z,0.40
2024-05-09T06:39:36.907Z,0.40
2024-05-09T06:42:09.254Z,0.40
2024-05-09T06:44:41.312Z,0.40
2024-05-09T06:47:13.622Z,0.40
2024-05-09T06:49:42.786Z,0.40
2024-05-09T06:52:15.098Z,0.40
2024-05-09T06:54:44.319Z,0.40
2024-05-09T06:57:16.293Z,0.40
2024-05-09T06:59:48.297Z,0.40
2024-05-09T07:02:20.359Z,0.50
2024-05-09T07:04:49.652Z,0.40
2024-05-09T07:07:24.428Z,0.30
2024-05-09T07:09:53.757Z,0.37
2024-05-09T07:12:26.212Z,0.50
2024-05-09T07:14:58.378Z,0.40
2024-05-09T07:17:30.532Z,0.40
2024-05-09T07:20:00.836Z,0.40
2024-05-09T07:22:32.871Z,0.40
2024-05-09T07:25:02.136Z,0.40
2024-05-09T07:27:34.122Z,0.40
2024-05-09T07:30:07.361Z,0.40
2024-05-09T07:32:39.710Z,0.40
2024-05-09T07:35:09.114Z,0.40
2024-05-09T07:37:41.757Z,0.40
2024-05-09T07:40:17.692Z,0.40
2024-05-09T07:42:56.491Z,0.40
2024-05-09T07:45:45.034Z,0.30
2024-05-09T07:52:39.269Z,0.30
2024-05-09T07:53:52.139Z,0.40
2024-05-09T07:56:24.680Z,0.40
2024-05-09T07:58:57.661Z,0.40
2024-05-09T08:01:29.871Z,0.40
2024-05-09T08:04:01.978Z,0.40
2024-05-09T08:06:31.247Z,0.40
2024-05-09T08:09:08.021Z,0.40
2024-05-09T08:11:40.312Z,0.40
2024-05-09T08:14:12.322Z,0.40
2024-05-09T08:16:44.304Z,0.40
2024-05-09T08:19:16.365Z,0.40
2024-05-09T08:21:45.667Z,0.40
2024-05-09T08:24:17.683Z,0.40
2024-05-09T08:26:46.907Z,0.40
2024-05-09T08:29:18.880Z,0.47
2024-05-09T08:31:50.916Z,0.40
2024-05-09T08:34:23.030Z,0.40
2024-05-09T08:36:52.298Z,0.30
2024-05-09T08:39:24.533Z,0.40
2024-05-09T08:41:53.718Z,0.40
2024-05-09T08:44:26.446Z,0.40
2024-05-09T08:46:58.662Z,0.50
2024-05-09T08:49:31.268Z,0.40
2024-05-09T08:52:00.556Z,0.40
2024-05-09T08:54:34.436Z,0.40
2024-05-09T08:57:05.691Z,0.40
2024-05-09T08:59:39.575Z,0.40
2024-05-09T09:02:14.878Z,0.43
2024-05-09T09:04:54.889Z,0.40
2024-05-09T09:07:24.901Z,0.40
2024-05-09T09:09:58.219Z,0.40
2024-05-09T09:12:27.827Z,0.30
2024-05-09T09:15:00.003Z,0.43
2024-05-09T09:17:32.157Z,0.40
2024-05-09T09:20:07.053Z,0.40
2024-05-09T09:22:38.196Z,0.47
2024-05-09T09:25:10.598Z,0.40
2024-05-09T09:27:39.944Z,0.40
2024-05-09T09:30:27.319Z,0.50
2024-05-09T09:33:05.103Z,0.47
2024-05-09T09:35:37.914Z,0.40
2024-05-09T09:38:11.073Z,0.40
2024-05-09T09:40:49.767Z,0.47
2024-05-09T09:43:21.995Z,0.40
2024-05-09T09:45:56.566Z,0.40
2024-05-09T09:48:28.981Z,0.40
2024-05-09T09:51:02.037Z,0.50
2024-05-09T09:53:31.648Z,0.40
2024-05-09T09:56:04.635Z,0.50
2024-05-09T09:58:36.020Z,0.40
2024-05-09T10:01:08.272Z,0.50
2024-05-09T10:03:40.588Z,0.50
2024-05-09T10:06:15.126Z,0.50
2024-05-09T10:08:46.513Z,0.47
2024-05-09T10:11:23.309Z,0.50
2024-05-09T10:13:54.460Z,0.50
2024-05-09T10:16:26.789Z,0.50
2024-05-09T10:18:59.090Z,0.40
2024-05-09T10:21:31.843Z,0.50
2024-05-09T10:24:03.250Z,0.43
2024-05-09T10:26:36.631Z,0.50
2024-05-09T10:29:15.389Z,0.47
2024-05-09T10:31:48.516Z,0.40
2024-05-09T10:34:25.043Z,0.50
2024-05-09T10:36:58.257Z,0.40
2024-05-09T10:39:27.693Z,0.50
2024-05-09T10:41:59.671Z,0.40
2024-05-09T10:44:28.813Z,0.50
2024-05-09T10:47:00.853Z,0.40
2024-05-09T10:49:33.267Z,0.40
2024-05-09T10:52:08.693Z,0.40
2024-05-09T10:54:38.413Z,0.50
2024-05-09T10:57:11.034Z,0.47
2024-05-09T10:59:43.186Z,0.40
2024-05-09T11:02:15.651Z,0.40
2024-05-09T11:04:48.611Z,0.50
2024-05-09T11:07:22.517Z,0.40
2024-05-09T11:09:52.212Z,0.40
2024-05-09T11:12:24.976Z,0.40
2024-05-09T11:14:57.269Z,0.40
2024-05-09T11:17:29.379Z,0.40
2024-05-09T11:20:01.533Z,0.40
2024-05-09T11:22:36.952Z,0.40
2024-05-09T11:25:07.566Z,0.40
2024-05-09T11:27:41.705Z,0.50
2024-05-09T11:32:54.334Z,0.40
2024-05-09T11:35:27.292Z,0.40
2024-05-09T11:37:59.279Z,0.40
2024-05-09T11:43:01.169Z,0.40
2024-05-09T11:45:33.192Z,0.30
2024-05-09T11:48:02.539Z,0.40
2024-05-09T11:50:37.656Z,0.40
2024-05-09T11:53:07.361Z,0.40
2024-05-09T11:55:39.398Z,0.40
2024-05-09T11:58:09.227Z,0.40
2024-05-09T12:00:41.336Z,0.40
2024-05-09T12:03:10.516Z,0.30
2024-05-09T12:05:45.710Z,0.30
2024-05-09T12:08:15.219Z,0.40
2024-05-09T12:10:47.715Z,0.40
2024-05-09T12:13:19.217Z,0.40
2024-05-09T12:15:51.344Z,0.40
2024-05-09T12:18:20.593Z,0.30
2024-05-09T12:20:55.448Z,0.30
2024-05-09T12:23:24.543Z,0.30
2024-05-09T12:25:56.950Z,0.40
2024-05-09T12:28:27.000Z,0.40
2024-05-09T12:30:59.119Z,0.30
2024-05-09T12:33:28.530Z,0.40
2024-05-09T12:36:03.692Z,0.30
2024-05-09T12:38:32.845Z,0.40
2024-05-09T12:41:04.872Z,0.37
2024-05-09T12:43:34.147Z,0.30
2024-05-09T12:46:06.478Z,0.40
2024-05-09T12:48:35.778Z,0.30
2024-05-09T12:51:10.863Z,0.30
2024-05-09T12:53:40.810Z,0.30
2024-05-09T12:56:13.067Z,0.37
2024-05-09T12:58:42.170Z,0.30
2024-05-09T13:01:15.043Z,0.30
2024-05-09T13:03:44.407Z,0.30
2024-05-09T13:06:19.368Z,0.40
2024-05-09T13:08:48.965Z,0.30
2024-05-09T13:11:21.239Z,0.40
2024-05-09T13:13:50.367Z,0.30
2024-05-09T13:16:22.582Z,0.30
2024-05-09T13:18:51.873Z,0.30
2024-05-09T13:21:26.751Z,0.30
2024-05-09T13:23:56.843Z,0.40
2024-05-09T13:26:29.571Z,0.30
2024-05-09T13:28:58.693Z,0.30
2024-05-09T13:31:30.829Z,0.30
2024-05-09T13:34:00.290Z,0.30
2024-05-09T13:36:35.230Z,0.30
2024-05-09T13:39:05.371Z,0.30
2024-05-09T13:41:37.521Z,0.30
2024-05-09T13:44:07.015Z,0.30
2024-05-09T13:46:39.308Z,0.30
2024-05-09T13:49:10.753Z,0.30
2024-05-09T13:51:47.210Z,0.27
2024-05-09T13:54:18.637Z,0.30
2024-05-09T13:56:52.757Z,0.30
2024-05-09T13:59:21.907Z,0.30
2024-05-09T14:01:53.926Z,0.30
2024-05-09T14:04:23.406Z,0.30
2024-05-09T14:06:58.561Z,0.20
2024-05-09T14:09:29.214Z,0.30
2024-05-09T14:12:01.197Z,0.30
2024-05-09T14:14:30.426Z,0.30
2024-05-09T14:17:02.489Z,0.30
2024-05-09T14:19:31.771Z,0.30
2024-05-09T14:22:06.947Z,0.30
2024-05-09T14:24:36.356Z,0.30
2024-05-09T14:27:08.981Z,0.30
2024-05-09T14:29:38.263Z,0.30
2024-05-09T14:32:11.032Z,0.30
2024-05-09T14:34:40.174Z,0.30
2024-05-09T14:37:15.431Z,0.30
2024-05-09T14:39:44.746Z,0.30
2024-05-09T14:42:16.651Z,0.30
2024-05-09T14:44:46.060Z,0.30
2024-05-09T14:47:18.832Z,0.30
2024-05-09T14:49:48.146Z,0.30
2024-05-09T14:52:26.832Z,0.30
2024-05-09T14:55:00.250Z,0.30
2024-05-09T14:57:33.083Z,0.30
2024-05-09T15:00:03.744Z,0.30
2024-05-09T15:02:36.464Z,0.30
2024-05-09T15:05:07.716Z,0.30
2024-05-09T15:07:43.374Z,0.30
2024-05-09T15:10:23.831Z,0.30
2024-05-09T15:13:00.747Z,0.30
2024-05-09T15:15:32.994Z,0.30
2024-05-09T15:18:02.446Z,0.27
2024-05-09T15:20:36.688Z,0.30
2024-05-09T15:23:09.845Z,0.30
2024-05-09T15:25:41.851Z,0.20
2024-05-09T15:28:11.091Z,0.20
2024-05-09T15:30:46.300Z,0.20
2024-05-09T15:33:16.306Z,0.30
2024-05-09T15:35:48.377Z,0.20
2024-05-09T15:38:20.753Z,0.40
2024-05-09T15:40:53.251Z,0.30
2024-05-09T15:43:22.603Z,0.30
2024-05-09T15:45:54.641Z,0.40
2024-05-09T15:48:23.923Z,0.30
2024-05-09T15:50:56.180Z,0.40
2024-05-09T15:53:28.265Z,0.30
2024-05-09T15:56:00.509Z,0.30
2024-05-09T15:58:30.095Z,0.30
2024-05-09T16:01:02.254Z,0.30
2024-05-09T16:03:31.576Z,0.30
2024-05-09T16:06:04.341Z,0.30
2024-05-09T16:08:37.419Z,0.30
2024-05-09T16:11:09.998Z,0.30
2024-05-09T16:13:39.239Z,0.30
2024-05-09T16:16:11.675Z,0.30
2024-05-09T16:18:41.042Z,0.20
2024-05-09T16:21:13.238Z,0.30
2024-05-09T16:23:45.228Z,0.30
2024-05-09T16:26:17.350Z,0.30
2024-05-09T16:28:46.543Z,0.30
2024-05-09T16:31:18.647Z,0.30
2024-05-09T16:33:47.939Z,0.40
2024-05-09T16:36:20.037Z,0.30
2024-05-09T16:38:51.955Z,0.30
2024-05-09T16:41:23.924Z,0.30
2024-05-09T16:43:52.998Z,0.30
2024-05-09T16:46:25.298Z,0.30
2024-05-09T16:48:54.611Z,0.30
2024-05-09T16:51:26.819Z,0.33
2024-05-09T16:54:01.635Z,0.30
2024-05-09T16:56:30.957Z,0.30
2024-05-09T16:59:02.973Z,0.30
2024-05-09T17:01:32.494Z,0.30
2024-05-09T17:04:04.885Z,0.30
2024-05-09T17:06:34.387Z,0.30
2024-05-09T17:09:11.913Z,0.30
2024-05-09T17:11:45.074Z,0.30
2024-05-09T17:14:17.321Z,0.30
2024-05-09T17:16:49.458Z,0.40
2024-05-09T17:19:21.788Z,0.30
2024-05-09T17:21:51.033Z,0.20
2024-05-09T17:24:25.859Z,0.30
2024-05-09T17:26:55.131Z,0.30
2024-05-09T17:29:28.067Z,0.30
2024-05-09T17:31:57.471Z,0.30
2024-05-09T17:34:29.675Z,0.30
2024-05-09T17:36:58.958Z,0.30
2024-05-09T17:39:33.884Z,0.30
2024-05-09T17:42:03.057Z,0.30
2024-05-09T17:44:35.020Z,0.40
2024-05-09T17:47:04.363Z,0.20
2024-05-09T17:49:36.367Z,0.27
2024-05-09T17:52:06.034Z,0.20
2024-05-09T17:54:40.950Z,0.30
2024-05-09T17:57:10.184Z,0.20
2024-05-09T17:59:42.336Z,0.20
2024-05-09T18:02:11.708Z,0.20
2024-05-09T18:04:44.249Z,0.20
2024-05-09T18:07:13.654Z,0.20
2024-05-09T18:09:48.697Z,0.30
2024-05-09T18:12:18.288Z,0.27
2024-05-09T18:14:50.307Z,0.30
2024-05-09T18:17:21.752Z,0.20
2024-05-09T18:19:54.985Z,0.30
2024-05-09T18:22:24.764Z,0.20
2024-05-09T18:24:59.723Z,0.30
2024-05-09T18:27:29.069Z,0.20
2024-05-09T18:30:01.020Z,0.30
2024-05-09T18:32:30.330Z,0.30
2024-05-09T18:35:02.407Z,0.30
2024-05-09T18:37:31.675Z,0.30
2024-05-09T18:40:11.739Z,0.30
2024-05-09T18:42:41.727Z,0.20
2024-05-09T18:45:13.738Z,0.30
2024-05-09T18:47:42.936Z,0.30
2024-05-09T18:50:21.037Z,0.20
2024-05-09T18:52:58.089Z,0.20
2024-05-09T18:55:33.071Z,0.20
2024-05-09T18:58:02.543Z,0.20
2024-05-09T19:00:37.912Z,0.30
2024-05-09T19:03:13.969Z,0.30
2024-05-09T19:05:45.700Z,0.20
2024-05-09T19:08:18.634Z,0.20
2024-05-09T19:10:52.965Z,0.20
2024-05-09T19:13:25.829Z,0.20
2024-05-09T19:15:55.170Z,0.20
2024-05-09T19:18:27.359Z,0.20
2024-05-09T19:20:56.514Z,0.20
2024-05-09T19:23:28.968Z,0.20
2024-05-09T19:26:01.454Z,0.20
2024-05-09T19:28:33.535Z,0.20
2024-05-09T19:31:02.815Z,0.20
2024-05-09T19:33:35.308Z,0.20
2024-05-09T19:36:04.583Z,0.20
2024-05-09T19:38:37.166Z,0.20
2024-05-09T19:41:09.159Z,0.20
2024-05-09T19:43:41.702Z,0.20
2024-05-09T19:46:10.927Z,0.20
2024-05-09T19:48:43.073Z,0.20
2024-05-09T19:51:12.318Z,0.20
2024-05-09T19:53:44.477Z,0.20
2024-05-09T19:56:16.804Z,0.20
2024-05-09T19:58:48.927Z,0.20
2024-05-09T20:01:18.694Z,0.20
2024-05-09T20:03:51.388Z,0.20
2024-05-09T20:06:24.999Z,0.30
2024-05-09T20:08:58.955Z,0.20
2024-05-09T20:11:33.529Z,0.20
2024-05-09T20:14:05.777Z,0.20
2024-05-09T20:16:34.933Z,0.23
2024-05-09T20:19:06.979Z,0.30
2024-05-09T20:21:36.201Z,0.23
2024-05-09T20:24:08.563Z,0.20
2024-05-09T20:26:40.503Z,0.20
2024-05-09T20:29:12.509Z,0.20
2024-05-09T20:31:42.184Z,0.20
2024-05-09T20:34:14.228Z,0.20
2024-05-09T20:36:43.414Z,0.20
2024-05-09T20:39:15.495Z,0.20
2024-05-09T20:41:48.012Z,0.20
2024-05-09T20:44:20.149Z,0.30
2024-05-09T20:46:49.472Z,0.20
2024-05-09T20:49:21.678Z,0.20
2024-05-09T20:51:51.134Z,0.20
2024-05-09T20:54:23.339Z,0.30
2024-05-09T20:56:57.468Z,0.20
2024-05-09T20:59:29.465Z,0.20
2024-05-09T21:01:58.648Z,0.20
2024-05-09T21:04:30.897Z,0.20
2024-05-09T21:07:00.211Z,0.27
2024-05-09T21:09:32.725Z,0.20
2024-05-09T21:12:05.326Z,0.20
2024-05-09T21:14:37.411Z,0.20
2024-05-09T21:17:06.837Z,0.20
2024-05-09T21:19:39.056Z,0.20
2024-05-09T21:22:08.239Z,0.30
2024-05-09T21:24:40.551Z,0.30
2024-05-09T21:27:13.491Z,0.23
2024-05-09T21:29:45.479Z,0.30
2024-05-09T21:32:14.799Z,0.20
2024-05-09T21:34:46.974Z,0.20
2024-05-09T21:37:16.506Z,0.30
2024-05-09T21:39:48.682Z,0.30
2024-05-09T21:42:20.696Z,0.20
2024-05-09T21:44:52.727Z,0.30
2024-05-09T21:47:21.954Z,0.30
2024-05-09T21:49:54.190Z,0.40
2024-05-09T21:52:23.389Z,0.30
2024-05-09T21:54:55.671Z,0.30
2024-05-09T21:57:27.711Z,0.30
2024-05-09T21:59:59.935Z,0.30
2024-05-09T22:02:29.165Z,0.30
2024-05-09T22:05:01.568Z,0.30
2024-05-09T22:07:30.996Z,0.30
2024-05-09T22:10:04.025Z,0.30
2024-05-09T22:12:38.516Z,0.30
2024-05-09T22:15:10.963Z,0.30
2024-05-09T22:17:41.309Z,0.30
2024-05-09T22:20:21.874Z,0.20
2024-05-09T22:22:57.562Z,0.30
2024-05-09T22:25:31.047Z,0.30
2024-05-09T22:28:04.545Z,0.30
2024-05-09T22:30:39.464Z,0.30
2024-05-09T22:33:11.030Z,0.30
2024-05-09T22:35:44.443Z,0.30
2024-05-09T22:38:13.535Z,0.30
2024-05-09T22:40:48.795Z,0.30
2024-05-09T22:43:24.617Z,0.30
2024-05-09T22:45:57.866Z,0.30
2024-05-09T22:48:27.275Z,0.30
2024-05-09T22:50:59.596Z,0.37
2024-05-09T22:53:28.748Z,0.30
2024-05-09T22:56:00.736Z,0.30
2024-05-09T22:58:32.738Z,0.30
2024-05-09T23:01:04.830Z,0.30
2024-05-09T23:03:34.727Z,0.40
2024-05-09T23:06:10.736Z,0.30
2024-05-09T23:08:39.867Z,0.30
2024-05-09T23:11:12.346Z,0.40
2024-05-09T23:13:44.604Z,0.30
2024-05-09T23:16:16.811Z,0.20
2024-05-09T23:18:46.124Z,0.30
2024-05-09T23:21:18.392Z,0.30
2024-05-09T23:23:47.514Z,0.30
2024-05-09T23:26:19.533Z,0.30
2024-05-09T23:28:51.520Z,0.33
2024-05-09T23:31:24.210Z,0.30
2024-05-09T23:33:55.595Z,0.30
2024-05-09T23:36:27.880Z,0.30
2024-05-09T23:38:57.006Z,0.30
2024-05-09T23:41:29.103Z,0.30
2024-05-09T23:44:01.057Z,0.30
2024-05-09T23:46:33.132Z,0.30
2024-05-09T23:49:02.419Z,0.30
2024-05-09T23:51:34.555Z,0.30
2024-05-09T23:54:03.797Z,0.30
2024-05-09T23:56:37.041Z,0.30
2024-05-09T23:59:09.042Z,0.40
